sensor_id;sensor_type;location;lat;lon;timestamp;P1;durP1;ratioP1;P2;durP2;ratioP2
21012;SDS011;10664;53.582;9.712;2023-02-24T00:00:24;2.03;;;1.00;;
21012;SDS011;10664;53.582;9.712;2023-02-24T00:03:02;1.30;;;0.87;;
21012;SDS011;10664;53.582;9.712;2023-02-24T00:05:35;2.43;;;1.00;;
21012;SDS011;10664;53.582;9.712;2023-02-24T00:08:03;1.20;;;1.10;;
21012;SDS011;10664;53.582;9.712;2023-02-24T00:10:29;1.77;;;0.97;;
21012;SDS011;10664;53.582;9.712;2023-02-24T00:12:56;1.30;;;1.10;;
21012;SDS011;10664;53.582;9.712;2023-02-24T00:15:23;2.37;;;1.50;;
21012;SDS011;10664;53.582;9.712;2023-02-24T00:17:49;3.77;;;1.30;;
21012;SDS011;10664;53.582;9.712;2023-02-24T00:20:15;1.77;;;1.17;;
21012;SDS011;10664;53.582;9.712;2023-02-24T00:22:42;2.10;;;1.00;;
21012;SDS011;10664;53.582;9.712;2023-02-24T00:25:09;1.90;;;0.90;;
21012;SDS011;10664;53.582;9.712;2023-02-24T00:27:36;2.20;;;1.30;;
21012;SDS011;10664;53.582;9.712;2023-02-24T00:30:02;1.47;;;1.00;;
21012;SDS011;10664;53.582;9.712;2023-02-24T00:32:29;2.30;;;0.87;;
21012;SDS011;10664;53.582;9.712;2023-02-24T00:34:55;1.60;;;1.07;;
21012;SDS011;10664;53.582;9.712;2023-02-24T00:37:21;2.67;;;1.20;;
21012;SDS011;10664;53.582;9.712;2023-02-24T00:39:48;2.37;;;1.10;;
21012;SDS011;10664;53.582;9.712;2023-02-24T00:42:14;1.63;;;1.03;;
21012;SDS011;10664;53.582;9.712;2023-02-24T00:44:44;1.30;;;1.00;;
21012;SDS011;10664;53.582;9.712;2023-02-24T00:47:13;2.30;;;1.20;;
21012;SDS011;10664;53.582;9.712;2023-02-24T00:49:42;1.70;;;1.00;;
21012;SDS011;10664;53.582;9.712;2023-02-24T00:52:09;2.23;;;1.10;;
21012;SDS011;10664;53.582;9.712;2023-02-24T00:54:37;1.63;;;0.80;;
21012;SDS011;10664;53.582;9.712;2023-02-24T00:57:03;1.87;;;1.00;;
21012;SDS011;10664;53.582;9.712;2023-02-24T00:59:32;2.60;;;0.90;;
21012;SDS011;10664;53.582;9.712;2023-02-24T01:01:58;1.83;;;1.10;;
21012;SDS011;10664;53.582;9.712;2023-02-24T01:04:24;2.73;;;1.23;;
21012;SDS011;10664;53.582;9.712;2023-02-24T01:06:53;1.33;;;0.90;;
21012;SDS011;10664;53.582;9.712;2023-02-24T01:09:24;1.77;;;1.30;;
21012;SDS011;10664;53.582;9.712;2023-02-24T01:11:51;1.93;;;0.90;;
21012;SDS011;10664;53.582;9.712;2023-02-24T01:14:36;1.40;;;0.93;;
21012;SDS011;10664;53.582;9.712;2023-02-24T01:17:04;1.37;;;0.97;;
21012;SDS011;10664;53.582;9.712;2023-02-24T01:19:30;2.87;;;0.93;;
21012;SDS011;10664;53.582;9.712;2023-02-24T01:21:57;3.90;;;1.20;;
21012;SDS011;10664;53.582;9.712;2023-02-24T01:24:24;1.10;;;1.00;;
21012;SDS011;10664;53.582;9.712;2023-02-24T01:26:51;1.50;;;1.10;;
21012;SDS011;10664;53.582;9.712;2023-02-24T01:29:17;3.00;;;1.27;;
21012;SDS011;10664;53.582;9.712;2023-02-24T01:31:43;2.40;;;0.97;;
21012;SDS011;10664;53.582;9.712;2023-02-24T01:34:10;3.00;;;1.27;;
21012;SDS011;10664;53.582;9.712;2023-02-24T01:36:37;1.47;;;1.10;;
21012;SDS011;10664;53.582;9.712;2023-02-24T01:39:04;1.57;;;1.27;;
21012;SDS011;10664;53.582;9.712;2023-02-24T01:41:34;1.67;;;0.93;;
21012;SDS011;10664;53.582;9.712;2023-02-24T01:44:58;3.27;;;1.20;;
21012;SDS011;10664;53.582;9.712;2023-02-24T01:46:53;1.90;;;1.27;;
21012;SDS011;10664;53.582;9.712;2023-02-24T01:49:21;2.27;;;1.40;;
21012;SDS011;10664;53.582;9.712;2023-02-24T01:51:49;3.73;;;1.30;;
21012;SDS011;10664;53.582;9.712;2023-02-24T01:54:18;1.90;;;1.13;;
21012;SDS011;10664;53.582;9.712;2023-02-24T01:56:46;2.80;;;1.13;;
21012;SDS011;10664;53.582;9.712;2023-02-24T01:59:13;3.57;;;1.40;;
21012;SDS011;10664;53.582;9.712;2023-02-24T02:01:40;1.50;;;1.40;;
21012;SDS011;10664;53.582;9.712;2023-02-24T02:04:20;3.27;;;1.53;;
21012;SDS011;10664;53.582;9.712;2023-02-24T02:06:49;2.47;;;1.27;;
21012;SDS011;10664;53.582;9.712;2023-02-24T02:09:16;1.57;;;1.03;;
21012;SDS011;10664;53.582;9.712;2023-02-24T02:11:42;1.70;;;1.20;;
21012;SDS011;10664;53.582;9.712;2023-02-24T02:14:16;2.20;;;1.00;;
21012;SDS011;10664;53.582;9.712;2023-02-24T02:16:47;2.03;;;1.10;;
21012;SDS011;10664;53.582;9.712;2023-02-24T02:40:46;2.53;;;1.40;;
21012;SDS011;10664;53.582;9.712;2023-02-24T02:43:26;3.13;;;1.40;;
21012;SDS011;10664;53.582;9.712;2023-02-24T02:46:06;1.33;;;1.17;;
21012;SDS011;10664;53.582;9.712;2023-02-24T02:48:46;2.93;;;1.17;;
21012;SDS011;10664;53.582;9.712;2023-02-24T02:51:15;2.57;;;1.23;;
21012;SDS011;10664;53.582;9.712;2023-02-24T02:53:48;2.80;;;1.40;;
21012;SDS011;10664;53.582;9.712;2023-02-24T02:56:16;1.97;;;1.13;;
21012;SDS011;10664;53.582;9.712;2023-02-24T02:58:44;2.20;;;1.07;;
21012;SDS011;10664;53.582;9.712;2023-02-24T03:01:14;2.33;;;1.10;;
21012;SDS011;10664;53.582;9.712;2023-02-24T03:03:42;1.83;;;1.13;;
21012;SDS011;10664;53.582;9.712;2023-02-24T03:06:14;1.83;;;1.10;;
21012;SDS011;10664;53.582;9.712;2023-02-24T03:08:42;3.43;;;1.40;;
21012;SDS011;10664;53.582;9.712;2023-02-24T03:11:10;1.00;;;0.90;;
21012;SDS011;10664;53.582;9.712;2023-02-24T03:13:39;2.00;;;1.20;;
21012;SDS011;10664;53.582;9.712;2023-02-24T03:16:06;1.93;;;1.10;;
21012;SDS011;10664;53.582;9.712;2023-02-24T03:18:38;1.83;;;1.13;;
21012;SDS011;10664;53.582;9.712;2023-02-24T03:21:08;2.77;;;1.10;;
21012;SDS011;10664;53.582;9.712;2023-02-24T03:23:37;1.20;;;1.10;;
21012;SDS011;10664;53.582;9.712;2023-02-24T03:28:36;3.70;;;1.63;;
21012;SDS011;10664;53.582;9.712;2023-02-24T03:31:06;1.43;;;1.07;;
21012;SDS011;10664;53.582;9.712;2023-02-24T03:33:35;2.17;;;1.20;;
21012;SDS011;10664;53.582;9.712;2023-02-24T03:36:04;2.40;;;1.10;;
21012;SDS011;10664;53.582;9.712;2023-02-24T03:38:31;1.67;;;0.90;;
21012;SDS011;10664;53.582;9.712;2023-02-24T03:40:57;1.67;;;1.57;;
21012;SDS011;10664;53.582;9.712;2023-02-24T03:43:28;1.47;;;0.90;;
21012;SDS011;10664;53.582;9.712;2023-02-24T03:45:55;2.37;;;1.13;;
21012;SDS011;10664;53.582;9.712;2023-02-24T03:48:21;3.43;;;1.17;;
21012;SDS011;10664;53.582;9.712;2023-02-24T03:50:48;1.93;;;1.30;;
21012;SDS011;10664;53.582;9.712;2023-02-24T03:53:22;2.17;;;1.07;;
21012;SDS011;10664;53.582;9.712;2023-02-24T03:58:31;1.87;;;0.90;;
21012;SDS011;10664;53.582;9.712;2023-02-24T04:01:10;1.50;;;0.90;;
21012;SDS011;10664;53.582;9.712;2023-02-24T04:09:26;2.00;;;1.20;;
21012;SDS011;10664;53.582;9.712;2023-02-24T04:12:02;2.27;;;1.20;;
21012;SDS011;10664;53.582;9.712;2023-02-24T04:14:33;1.87;;;1.07;;
21012;SDS011;10664;53.582;9.712;2023-02-24T04:17:06;3.50;;;1.33;;
21012;SDS011;10664;53.582;9.712;2023-02-24T04:19:35;1.83;;;1.20;;
21012;SDS011;10664;53.582;9.712;2023-02-24T04:22:03;1.60;;;1.00;;
21012;SDS011;10664;53.582;9.712;2023-02-24T04:24:30;2.73;;;1.07;;
21012;SDS011;10664;53.582;9.712;2023-02-24T04:26:57;2.77;;;1.40;;
21012;SDS011;10664;53.582;9.712;2023-02-24T04:29:25;3.27;;;1.40;;
21012;SDS011;10664;53.582;9.712;2023-02-24T04:31:55;4.03;;;1.37;;
21012;SDS011;10664;53.582;9.712;2023-02-24T04:34:22;1.70;;;1.10;;
21012;SDS011;10664;53.582;9.712;2023-02-24T04:36:49;3.17;;;1.20;;
21012;SDS011;10664;53.582;9.712;2023-02-24T04:39:15;2.40;;;1.37;;
21012;SDS011;10664;53.582;9.712;2023-02-24T04:41:43;1.80;;;1.27;;
21012;SDS011;10664;53.582;9.712;2023-02-24T04:44:09;1.83;;;1.10;;
21012;SDS011;10664;53.582;9.712;2023-02-24T04:46:35;2.37;;;1.30;;
21012;SDS011;10664;53.582;9.712;2023-02-24T04:49:01;2.03;;;0.90;;
21012;SDS011;10664;53.582;9.712;2023-02-24T04:51:27;1.97;;;1.20;;
21012;SDS011;10664;53.582;9.712;2023-02-24T04:53:56;2.03;;;1.10;;
21012;SDS011;10664;53.582;9.712;2023-02-24T04:56:22;1.13;;;0.93;;
21012;SDS011;10664;53.582;9.712;2023-02-24T04:58:48;2.10;;;1.00;;
21012;SDS011;10664;53.582;9.712;2023-02-24T05:01:14;2.23;;;0.87;;
21012;SDS011;10664;53.582;9.712;2023-02-24T05:03:40;3.10;;;1.20;;
21012;SDS011;10664;53.582;9.712;2023-02-24T05:06:10;3.17;;;1.20;;
21012;SDS011;10664;53.582;9.712;2023-02-24T05:08:38;2.97;;;1.10;;
21012;SDS011;10664;53.582;9.712;2023-02-24T05:11:04;2.23;;;1.30;;
21012;SDS011;10664;53.582;9.712;2023-02-24T05:13:31;1.43;;;0.90;;
21012;SDS011;10664;53.582;9.712;2023-02-24T05:15:58;2.13;;;1.00;;
21012;SDS011;10664;53.582;9.712;2023-02-24T05:18:25;1.93;;;0.97;;
21012;SDS011;10664;53.582;9.712;2023-02-24T05:20:54;3.83;;;1.33;;
21012;SDS011;10664;53.582;9.712;2023-02-24T05:23:40;1.83;;;1.00;;
21012;SDS011;10664;53.582;9.712;2023-02-24T05:26:10;1.63;;;1.10;;
21012;SDS011;10664;53.582;9.712;2023-02-24T05:28:39;3.13;;;0.90;;
21012;SDS011;10664;53.582;9.712;2023-02-24T05:31:10;1.10;;;1.00;;
21012;SDS011;10664;53.582;9.712;2023-02-24T05:33:38;1.60;;;0.90;;
21012;SDS011;10664;53.582;9.712;2023-02-24T05:36:07;2.37;;;1.10;;
21012;SDS011;10664;53.582;9.712;2023-02-24T05:38:34;2.37;;;1.10;;
21012;SDS011;10664;53.582;9.712;2023-02-24T05:41:15;2.00;;;1.00;;
21012;SDS011;10664;53.582;9.712;2023-02-24T05:43:49;1.97;;;1.17;;
21012;SDS011;10664;53.582;9.712;2023-02-24T05:46:22;2.40;;;0.97;;
21012;SDS011;10664;53.582;9.712;2023-02-24T05:48:52;2.47;;;1.20;;
21012;SDS011;10664;53.582;9.712;2023-02-24T05:51:20;1.70;;;1.17;;
21012;SDS011;10664;53.582;9.712;2023-02-24T05:53:48;2.60;;;1.10;;
21012;SDS011;10664;53.582;9.712;2023-02-24T05:56:14;2.50;;;1.20;;
21012;SDS011;10664;53.582;9.712;2023-02-24T05:58:43;3.27;;;1.20;;
21012;SDS011;10664;53.582;9.712;2023-02-24T06:01:12;3.73;;;1.00;;
21012;SDS011;10664;53.582;9.712;2023-02-24T06:03:45;2.90;;;1.37;;
21012;SDS011;10664;53.582;9.712;2023-02-24T06:06:12;2.37;;;1.37;;
21012;SDS011;10664;53.582;9.712;2023-02-24T06:08:39;3.03;;;1.07;;
21012;SDS011;10664;53.582;9.712;2023-02-24T06:11:13;3.13;;;1.17;;
21012;SDS011;10664;53.582;9.712;2023-02-24T06:13:41;1.47;;;1.10;;
21012;SDS011;10664;53.582;9.712;2023-02-24T06:16:16;3.00;;;1.33;;
21012;SDS011;10664;53.582;9.712;2023-02-24T06:18:43;3.53;;;1.80;;
21012;SDS011;10664;53.582;9.712;2023-02-24T06:21:11;4.23;;;1.40;;
21012;SDS011;10664;53.582;9.712;2023-02-24T06:23:38;2.70;;;1.27;;
21012;SDS011;10664;53.582;9.712;2023-02-24T06:26:04;2.57;;;1.40;;
21012;SDS011;10664;53.582;9.712;2023-02-24T06:28:36;1.33;;;0.90;;
21012;SDS011;10664;53.582;9.712;2023-02-24T06:31:03;2.07;;;1.40;;
21012;SDS011;10664;53.582;9.712;2023-02-24T06:33:30;2.87;;;1.20;;
21012;SDS011;10664;53.582;9.712;2023-02-24T06:35:58;3.10;;;1.40;;
21012;SDS011;10664;53.582;9.712;2023-02-24T06:38:24;3.67;;;1.50;;
21012;SDS011;10664;53.582;9.712;2023-02-24T06:40:50;2.93;;;1.27;;
21012;SDS011;10664;53.582;9.712;2023-02-24T06:43:16;4.03;;;1.67;;
21012;SDS011;10664;53.582;9.712;2023-02-24T06:45:43;2.50;;;1.50;;
21012;SDS011;10664;53.582;9.712;2023-02-24T06:48:09;1.37;;;1.23;;
21012;SDS011;10664;53.582;9.712;2023-02-24T06:50:35;3.00;;;1.33;;
21012;SDS011;10664;53.582;9.712;2023-02-24T06:53:02;2.97;;;1.40;;
21012;SDS011;10664;53.582;9.712;2023-02-24T06:55:28;1.77;;;1.30;;
21012;SDS011;10664;53.582;9.712;2023-02-24T06:57:58;3.03;;;1.37;;
21012;SDS011;10664;53.582;9.712;2023-02-24T07:00:28;2.67;;;1.70;;
21012;SDS011;10664;53.582;9.712;2023-02-24T07:03:18;2.23;;;1.53;;
21012;SDS011;10664;53.582;9.712;2023-02-24T07:05:49;4.50;;;2.00;;
21012;SDS011;10664;53.582;9.712;2023-02-24T07:08:22;3.10;;;1.50;;
21012;SDS011;10664;53.582;9.712;2023-02-24T07:10:52;2.20;;;1.70;;
21012;SDS011;10664;53.582;9.712;2023-02-24T07:13:19;3.87;;;1.90;;
21012;SDS011;10664;53.582;9.712;2023-02-24T07:15:45;5.50;;;2.13;;
21012;SDS011;10664;53.582;9.712;2023-02-24T07:18:13;2.80;;;1.63;;
21012;SDS011;10664;53.582;9.712;2023-02-24T07:20:39;4.50;;;1.77;;
21012;SDS011;10664;53.582;9.712;2023-02-24T07:23:09;2.97;;;1.80;;
21012;SDS011;10664;53.582;9.712;2023-02-24T07:25:35;5.70;;;2.20;;
21012;SDS011;10664;53.582;9.712;2023-02-24T07:28:03;3.40;;;2.10;;
21012;SDS011;10664;53.582;9.712;2023-02-24T07:30:31;4.40;;;1.83;;
21012;SDS011;10664;53.582;9.712;2023-02-24T07:32:57;2.83;;;1.83;;
21012;SDS011;10664;53.582;9.712;2023-02-24T07:35:23;1.87;;;1.70;;
21012;SDS011;10664;53.582;9.712;2023-02-24T07:37:49;4.07;;;2.10;;
21012;SDS011;10664;53.582;9.712;2023-02-24T07:40:16;3.90;;;1.93;;
21012;SDS011;10664;53.582;9.712;2023-02-24T07:42:42;3.67;;;2.00;;
21012;SDS011;10664;53.582;9.712;2023-02-24T07:45:11;4.40;;;1.93;;
21012;SDS011;10664;53.582;9.712;2023-02-24T07:47:37;4.10;;;2.00;;
21012;SDS011;10664;53.582;9.712;2023-02-24T07:50:05;2.60;;;1.90;;
21012;SDS011;10664;53.582;9.712;2023-02-24T07:52:37;3.03;;;1.80;;
21012;SDS011;10664;53.582;9.712;2023-02-24T07:55:03;3.40;;;2.03;;
21012;SDS011;10664;53.582;9.712;2023-02-24T07:57:29;4.87;;;2.13;;
21012;SDS011;10664;53.582;9.712;2023-02-24T07:59:57;4.57;;;2.10;;
21012;SDS011;10664;53.582;9.712;2023-02-24T08:02:23;4.23;;;2.30;;
21012;SDS011;10664;53.582;9.712;2023-02-24T08:04:49;2.83;;;1.87;;
21012;SDS011;10664;53.582;9.712;2023-02-24T08:07:19;3.00;;;2.00;;
21012;SDS011;10664;53.582;9.712;2023-02-24T08:09:48;4.10;;;2.23;;
21012;SDS011;10664;53.582;9.712;2023-02-24T08:12:33;3.33;;;2.20;;
21012;SDS011;10664;53.582;9.712;2023-02-24T08:14:59;4.30;;;2.17;;
21012;SDS011;10664;53.582;9.712;2023-02-24T08:17:33;3.47;;;2.10;;
21012;SDS011;10664;53.582;9.712;2023-02-24T08:19:59;2.40;;;1.83;;
21012;SDS011;10664;53.582;9.712;2023-02-24T08:22:37;2.73;;;1.90;;
21012;SDS011;10664;53.582;9.712;2023-02-24T08:25:08;3.20;;;2.17;;
21012;SDS011;10664;53.582;9.712;2023-02-24T08:27:35;2.07;;;1.87;;
21012;SDS011;10664;53.582;9.712;2023-02-24T08:30:04;3.13;;;1.73;;
21012;SDS011;10664;53.582;9.712;2023-02-24T08:32:32;2.80;;;1.90;;
21012;SDS011;10664;53.582;9.712;2023-02-24T08:35:01;2.87;;;1.90;;
21012;SDS011;10664;53.582;9.712;2023-02-24T08:37:32;3.83;;;1.90;;
21012;SDS011;10664;53.582;9.712;2023-02-24T08:39:58;3.40;;;2.07;;
21012;SDS011;10664;53.582;9.712;2023-02-24T08:42:24;2.83;;;1.80;;
21012;SDS011;10664;53.582;9.712;2023-02-24T08:44:59;2.03;;;1.67;;
21012;SDS011;10664;53.582;9.712;2023-02-24T08:47:26;2.57;;;1.67;;
21012;SDS011;10664;53.582;9.712;2023-02-24T08:49:55;2.40;;;1.80;;
21012;SDS011;10664;53.582;9.712;2023-02-24T08:52:23;2.13;;;1.70;;
21012;SDS011;10664;53.582;9.712;2023-02-24T08:54:51;1.93;;;1.77;;
21012;SDS011;10664;53.582;9.712;2023-02-24T08:57:22;2.47;;;1.73;;
21012;SDS011;10664;53.582;9.712;2023-02-24T08:59:49;1.80;;;1.70;;
21012;SDS011;10664;53.582;9.712;2023-02-24T09:02:22;2.60;;;2.03;;
21012;SDS011;10664;53.582;9.712;2023-02-24T09:04:56;2.13;;;1.93;;
21012;SDS011;10664;53.582;9.712;2023-02-24T09:09:48;2.97;;;1.90;;
21012;SDS011;10664;53.582;9.712;2023-02-24T09:12:20;2.13;;;1.70;;
21012;SDS011;10664;53.582;9.712;2023-02-24T09:14:49;2.13;;;1.90;;
21012;SDS011;10664;53.582;9.712;2023-02-24T09:17:19;2.60;;;1.83;;
21012;SDS011;10664;53.582;9.712;2023-02-24T09:20:03;1.80;;;1.70;;
21012;SDS011;10664;53.582;9.712;2023-02-24T09:22:47;2.07;;;1.87;;
21012;SDS011;10664;53.582;9.712;2023-02-24T09:25:32;3.97;;;2.17;;
21012;SDS011;10664;53.582;9.712;2023-02-24T09:28:11;2.83;;;1.77;;
21012;SDS011;10664;53.582;9.712;2023-02-24T09:30:53;2.33;;;1.77;;
21012;SDS011;10664;53.582;9.712;2023-02-24T09:33:26;2.27;;;1.50;;
21012;SDS011;10664;53.582;9.712;2023-02-24T09:35:57;1.77;;;1.50;;
21012;SDS011;10664;53.582;9.712;2023-02-24T09:38:50;2.37;;;1.73;;
21012;SDS011;10664;53.582;9.712;2023-02-24T09:44:11;2.30;;;1.70;;
21012;SDS011;10664;53.582;9.712;2023-02-24T09:46:44;2.10;;;1.90;;
21012;SDS011;10664;53.582;9.712;2023-02-24T09:49:17;2.67;;;1.80;;
21012;SDS011;10664;53.582;9.712;2023-02-24T09:51:43;2.23;;;1.50;;
21012;SDS011;10664;53.582;9.712;2023-02-24T09:54:14;3.30;;;1.90;;
21012;SDS011;10664;53.582;9.712;2023-02-24T09:56:43;2.50;;;1.70;;
21012;SDS011;10664;53.582;9.712;2023-02-24T09:59:34;2.40;;;1.90;;
21012;SDS011;10664;53.582;9.712;2023-02-24T10:02:40;2.60;;;1.70;;
21012;SDS011;10664;53.582;9.712;2023-02-24T10:04:59;1.83;;;1.70;;
21012;SDS011;10664;53.582;9.712;2023-02-24T10:07:32;2.73;;;1.90;;
21012;SDS011;10664;53.582;9.712;2023-02-24T10:12:56;2.43;;;1.60;;
21012;SDS011;10664;53.582;9.712;2023-02-24T10:15:26;1.97;;;1.60;;
21012;SDS011;10664;53.582;9.712;2023-02-24T10:20:51;2.17;;;1.60;;
21012;SDS011;10664;53.582;9.712;2023-02-24T10:23:19;2.47;;;1.80;;
21012;SDS011;10664;53.582;9.712;2023-02-24T10:31:26;2.03;;;1.80;;
21012;SDS011;10664;53.582;9.712;2023-02-24T10:34:04;1.87;;;1.77;;
21012;SDS011;10664;53.582;9.712;2023-02-24T10:36:31;2.83;;;2.27;;
21012;SDS011;10664;53.582;9.712;2023-02-24T10:39:13;1.90;;;1.80;;
21012;SDS011;10664;53.582;9.712;2023-02-24T10:41:45;2.00;;;1.90;;
21012;SDS011;10664;53.582;9.712;2023-02-24T10:44:18;1.67;;;1.57;;
21012;SDS011;10664;53.582;9.712;2023-02-24T10:46:44;2.10;;;1.90;;
21012;SDS011;10664;53.582;9.712;2023-02-24T10:49:10;2.40;;;2.20;;
21012;SDS011;10664;53.582;9.712;2023-02-24T10:51:41;4.00;;;2.33;;
21012;SDS011;10664;53.582;9.712;2023-02-24T10:54:12;2.23;;;2.13;;
21012;SDS011;10664;53.582;9.712;2023-02-24T10:56:56;3.03;;;2.37;;
21012;SDS011;10664;53.582;9.712;2023-02-24T10:59:45;2.57;;;2.20;;
21012;SDS011;10664;53.582;9.712;2023-02-24T11:02:48;2.87;;;2.17;;
21012;SDS011;10664;53.582;9.712;2023-02-24T11:05:34;2.80;;;2.40;;
21012;SDS011;10664;53.582;9.712;2023-02-24T11:08:15;2.63;;;2.43;;
21012;SDS011;10664;53.582;9.712;2023-02-24T11:11:00;3.13;;;2.73;;
21012;SDS011;10664;53.582;9.712;2023-02-24T11:13:31;2.83;;;2.30;;
21012;SDS011;10664;53.582;9.712;2023-02-24T11:16:16;2.40;;;2.20;;
21012;SDS011;10664;53.582;9.712;2023-02-24T11:19:00;2.40;;;2.20;;
21012;SDS011;10664;53.582;9.712;2023-02-24T11:21:26;3.50;;;2.40;;
21012;SDS011;10664;53.582;9.712;2023-02-24T11:23:55;3.93;;;2.60;;
21012;SDS011;10664;53.582;9.712;2023-02-24T11:26:22;2.80;;;2.60;;
21012;SDS011;10664;53.582;9.712;2023-02-24T11:36:56;3.47;;;2.57;;
21012;SDS011;10664;53.582;9.712;2023-02-24T11:39:42;3.50;;;2.70;;
21012;SDS011;10664;53.582;9.712;2023-02-24T11:42:14;2.70;;;2.50;;
21012;SDS011;10664;53.582;9.712;2023-02-24T11:47:10;9.97;;;6.60;;
21012;SDS011;10664;53.582;9.712;2023-02-24T11:49:39;9.97;;;7.80;;
21012;SDS011;10664;53.582;9.712;2023-02-24T11:52:09;6.73;;;5.67;;
21012;SDS011;10664;53.582;9.712;2023-02-24T11:54:42;6.53;;;5.20;;
21012;SDS011;10664;53.582;9.712;2023-02-24T11:57:14;5.37;;;4.20;;
21012;SDS011;10664;53.582;9.712;2023-02-24T11:59:42;5.60;;;4.17;;
21012;SDS011;10664;53.582;9.712;2023-02-24T12:07:31;3.50;;;3.20;;
21012;SDS011;10664;53.582;9.712;2023-02-24T12:10:00;5.97;;;3.90;;
21012;SDS011;10664;53.582;9.712;2023-02-24T12:17:54;4.30;;;3.90;;
21012;SDS011;10664;53.582;9.712;2023-02-24T12:20:37;3.93;;;3.40;;
21012;SDS011;10664;53.582;9.712;2023-02-24T12:23:16;5.70;;;3.87;;
21012;SDS011;10664;53.582;9.712;2023-02-24T12:25:52;4.67;;;3.70;;
21012;SDS011;10664;53.582;9.712;2023-02-24T12:28:26;3.77;;;3.17;;
21012;SDS011;10664;53.582;9.712;2023-02-24T12:31:05;3.57;;;3.27;;
21012;SDS011;10664;53.582;9.712;2023-02-24T12:36:13;5.27;;;3.20;;
21012;SDS011;10664;53.582;9.712;2023-02-24T12:38:59;4.77;;;3.17;;
21012;SDS011;10664;53.582;9.712;2023-02-24T12:41:41;3.70;;;3.30;;
21012;SDS011;10664;53.582;9.712;2023-02-24T12:44:18;5.23;;;3.53;;
21012;SDS011;10664;53.582;9.712;2023-02-24T12:46:50;4.17;;;3.77;;
21012;SDS011;10664;53.582;9.712;2023-02-24T12:49:29;5.40;;;3.50;;
21012;SDS011;10664;53.582;9.712;2023-02-24T12:57:00;7.80;;;4.30;;
21012;SDS011;10664;53.582;9.712;2023-02-24T12:59:30;6.37;;;4.33;;
21012;SDS011;10664;53.582;9.712;2023-02-24T13:02:05;7.80;;;4.33;;
21012;SDS011;10664;53.582;9.712;2023-02-24T13:15:06;5.60;;;3.90;;
21012;SDS011;10664;53.582;9.712;2023-02-24T13:17:44;5.90;;;3.90;;
21012;SDS011;10664;53.582;9.712;2023-02-24T13:20:12;4.60;;;3.80;;
21012;SDS011;10664;53.582;9.712;2023-02-24T13:22:40;6.47;;;3.60;;
21012;SDS011;10664;53.582;9.712;2023-02-24T13:27:37;7.60;;;4.30;;
21012;SDS011;10664;53.582;9.712;2023-02-24T13:30:05;6.13;;;3.30;;
21012;SDS011;10664;53.582;9.712;2023-02-24T13:32:35;8.53;;;3.57;;
21012;SDS011;10664;53.582;9.712;2023-02-24T13:39:53;4.70;;;2.27;;
21012;SDS011;10664;53.582;9.712;2023-02-24T13:42:24;5.43;;;2.10;;
21012;SDS011;10664;53.582;9.712;2023-02-24T13:50:04;6.77;;;2.00;;
21012;SDS011;10664;53.582;9.712;2023-02-24T14:00:38;5.27;;;1.70;;
21012;SDS011;10664;53.582;9.712;2023-02-24T14:03:19;4.80;;;1.77;;
21012;SDS011;10664;53.582;9.712;2023-02-24T14:05:46;3.83;;;1.37;;
21012;SDS011;10664;53.582;9.712;2023-02-24T14:08:17;3.90;;;1.80;;
21012;SDS011;10664;53.582;9.712;2023-02-24T14:10:44;3.67;;;1.73;;
21012;SDS011;10664;53.582;9.712;2023-02-24T14:15:40;3.93;;;1.53;;
21012;SDS011;10664;53.582;9.712;2023-02-24T14:18:15;2.97;;;1.40;;
21012;SDS011;10664;53.582;9.712;2023-02-24T14:20:42;4.20;;;1.97;;
21012;SDS011;10664;53.582;9.712;2023-02-24T14:26:05;4.87;;;2.00;;
21012;SDS011;10664;53.582;9.712;2023-02-24T14:28:35;4.77;;;1.90;;
21012;SDS011;10664;53.582;9.712;2023-02-24T14:31:03;4.33;;;1.77;;
21012;SDS011;10664;53.582;9.712;2023-02-24T14:33:31;5.73;;;1.50;;
21012;SDS011;10664;53.582;9.712;2023-02-24T14:35:58;6.93;;;2.27;;
21012;SDS011;10664;53.582;9.712;2023-02-24T14:38:29;4.37;;;1.87;;
21012;SDS011;10664;53.582;9.712;2023-02-24T14:40:55;5.53;;;2.17;;
21012;SDS011;10664;53.582;9.712;2023-02-24T14:43:22;6.77;;;2.20;;
21012;SDS011;10664;53.582;9.712;2023-02-24T14:45:48;5.13;;;1.67;;
21012;SDS011;10664;53.582;9.712;2023-02-24T14:48:28;6.50;;;2.17;;
21012;SDS011;10664;53.582;9.712;2023-02-24T14:50:55;6.90;;;2.10;;
21012;SDS011;10664;53.582;9.712;2023-02-24T14:53:22;6.63;;;2.30;;
21012;SDS011;10664;53.582;9.712;2023-02-24T14:55:50;4.17;;;1.53;;
21012;SDS011;10664;53.582;9.712;2023-02-24T14:58:24;4.30;;;1.60;;
21012;SDS011;10664;53.582;9.712;2023-02-24T15:01:33;7.53;;;1.40;;
21012;SDS011;10664;53.582;9.712;2023-02-24T15:03:43;3.53;;;1.40;;
21012;SDS011;10664;53.582;9.712;2023-02-24T15:06:21;4.27;;;1.33;;
21012;SDS011;10664;53.582;9.712;2023-02-24T15:08:50;2.00;;;1.20;;
21012;SDS011;10664;53.582;9.712;2023-02-24T15:11:20;3.50;;;1.20;;
21012;SDS011;10664;53.582;9.712;2023-02-24T15:13:51;4.30;;;1.30;;
21012;SDS011;10664;53.582;9.712;2023-02-24T15:18:44;1.90;;;1.10;;
21012;SDS011;10664;53.582;9.712;2023-02-24T15:21:19;3.80;;;1.40;;
21012;SDS011;10664;53.582;9.712;2023-02-24T15:23:46;3.47;;;1.30;;
21012;SDS011;10664;53.582;9.712;2023-02-24T15:26:31;3.93;;;1.37;;
21012;SDS011;10664;53.582;9.712;2023-02-24T15:29:19;3.57;;;1.23;;
21012;SDS011;10664;53.582;9.712;2023-02-24T15:31:47;4.03;;;1.60;;
21012;SDS011;10664;53.582;9.712;2023-02-24T15:34:16;4.03;;;1.70;;
21012;SDS011;10664;53.582;9.712;2023-02-24T15:36:43;3.60;;;1.20;;
21012;SDS011;10664;53.582;9.712;2023-02-24T15:39:13;2.77;;;1.20;;
21012;SDS011;10664;53.582;9.712;2023-02-24T15:41:43;4.90;;;1.47;;
21012;SDS011;10664;53.582;9.712;2023-02-24T15:44:26;4.07;;;1.40;;
21012;SDS011;10664;53.582;9.712;2023-02-24T15:46:52;2.97;;;1.33;;
21012;SDS011;10664;53.582;9.712;2023-02-24T15:49:19;5.10;;;1.40;;
21012;SDS011;10664;53.582;9.712;2023-02-24T15:51:46;6.53;;;1.83;;
21012;SDS011;10664;53.582;9.712;2023-02-24T15:54:17;4.50;;;1.50;;
21012;SDS011;10664;53.582;9.712;2023-02-24T15:56:44;3.93;;;1.30;;
21012;SDS011;10664;53.582;9.712;2023-02-24T15:59:12;3.73;;;1.40;;
21012;SDS011;10664;53.582;9.712;2023-02-24T16:01:38;3.93;;;1.47;;
21012;SDS011;10664;53.582;9.712;2023-02-24T16:04:04;3.83;;;1.37;;
21012;SDS011;10664;53.582;9.712;2023-02-24T16:06:33;5.63;;;1.40;;
21012;SDS011;10664;53.582;9.712;2023-02-24T16:09:05;4.33;;;1.60;;
21012;SDS011;10664;53.582;9.712;2023-02-24T16:11:31;3.90;;;1.50;;
21012;SDS011;10664;53.582;9.712;2023-02-24T16:13:58;7.53;;;1.50;;
21012;SDS011;10664;53.582;9.712;2023-02-24T16:16:24;4.70;;;1.60;;
21012;SDS011;10664;53.582;9.712;2023-02-24T16:18:51;5.30;;;1.63;;
21012;SDS011;10664;53.582;9.712;2023-02-24T16:21:17;4.13;;;1.57;;
21012;SDS011;10664;53.582;9.712;2023-02-24T16:23:43;4.57;;;1.77;;
21012;SDS011;10664;53.582;9.712;2023-02-24T16:26:16;5.87;;;1.90;;
21012;SDS011;10664;53.582;9.712;2023-02-24T16:28:43;9.07;;;1.90;;
21012;SDS011;10664;53.582;9.712;2023-02-24T16:31:12;5.20;;;1.73;;
21012;SDS011;10664;53.582;9.712;2023-02-24T16:33:38;4.30;;;1.70;;
21012;SDS011;10664;53.582;9.712;2023-02-24T16:36:08;5.97;;;1.87;;
21012;SDS011;10664;53.582;9.712;2023-02-24T16:38:34;7.33;;;1.87;;
21012;SDS011;10664;53.582;9.712;2023-02-24T16:41:01;7.53;;;2.77;;
21012;SDS011;10664;53.582;9.712;2023-02-24T16:43:27;6.50;;;2.13;;
21012;SDS011;10664;53.582;9.712;2023-02-24T16:45:54;9.50;;;2.53;;
21012;SDS011;10664;53.582;9.712;2023-02-24T16:48:25;7.87;;;2.30;;
21012;SDS011;10664;53.582;9.712;2023-02-24T16:50:51;8.23;;;2.33;;
21012;SDS011;10664;53.582;9.712;2023-02-24T16:53:19;10.10;;;2.70;;
21012;SDS011;10664;53.582;9.712;2023-02-24T16:55:46;8.00;;;2.67;;
21012;SDS011;10664;53.582;9.712;2023-02-24T16:58:13;7.23;;;2.30;;
21012;SDS011;10664;53.582;9.712;2023-02-24T17:00:39;9.83;;;2.87;;
21012;SDS011;10664;53.582;9.712;2023-02-24T17:03:11;10.47;;;2.60;;